Menlow, Texas
Current Conditions -  °F | °C
As of 1:15 AM on Friday 31 Oct 2014 (Local Time) from KINJ Reporting Station
Clear Clear  
Wind Chill: 60°   Ceiling: Unl
Heat Index: 60°   Visibility: 10mi
Dew Point: 53°   Wind: 7mph
Humidity: 78%   Direction: 350°N
Pressure: 30.17"   Gusts: NA
Location:  31.908°N, 97.0524°W
Report Text: KINJ 310615Z AUTO 35006KT 10SM CLR 15/12 A3017 RMK AO2 T01540116
Loading
Personal Weather Stations






























Interactive Weather Map
Tropical Storm Tracking
New forecast layout! Learn more

10-Day Weather Forecast

Advertisements
Track Severe Weather on mobile